Westhampton, NY

3:55 PM EST on December 22, 2014 (GMT -0500)
Newport Beach | Change Station
CLOSE
Current Station
Personal Weather Station
Location: East Moriches, NY
Elevation: 30 ft
Nearby Weather Stations

Elev 30 ft 40.81 °N, 72.73 °W | Updated 25 seconds ago

Overcast
Overcast
44.8 °F
Feels Like 39 °F
N
11.0
Wind Variable Wind from ESE
Gusts 15.0 mph

Today
High -- | Low -- °F
--% Chance of Precip.
Yesterday
High -- | Low -- °F
Precip. -- in
7:12 AM 4:26 PM
New Moon, 1% visible
Pressure 30.25 in
Visibility 10.0 miles
Clouds Few 1000 ft
Overcast 3600 ft
Windchill 39 °F
Dew Point 42 °F
Humidity 91%
Rainfall 0.00 in
Snow Depth Not available.
UV 0 out of 12
Pollen .10 out of 12
Air Quality Not available.
Flu Activity Not available.
METAR KFOK 221953Z 07010KT 10SM FEW010 OVC036 07/04 A3025 RMK AO2 SLP243 T00720044

More Conditions Fewer Conditions

Pressure 30.25 in
Visibility 10.0 miles
Clouds Few 1000 ft
Overcast 3600 ft
Windchill 39 °F
Dew Point 42 °F
Humidity 91%
Rainfall 0.00 in
Snow Depth Not available.
UV 0 out of 12
Pollen .10 out of 12
Air Quality Not available.
Flu Activity Not available.
METAR KFOK 221953Z 07010KT 10SM FEW010 OVC036 07/04 A3025 RMK AO2 SLP243 T00720044

More Conditions Fewer Conditions

10-Day Weather Forecast

Almanac

Astronomy

Dec. 22, 2014 Rise Set
Actual Time
Civil Twilight
Nautical Twilight
Astronomical Twilight
Moon
Length of Visible Light
Length of Day
Tomorrow will be .
, % of the Moon is Illuminated

Today's Extremes

State Highs State Lows

Community

WunderPhotos

Upload Photos

1,779,676 photos uploaded!

WunderBlogs® & News

Nearby

Air Quality

  Air Quality AQ Index Pollutant
Not available.

Snow Depth

Station Depth Elevation

Earthquake Activity

City Distance Mag. Time & Date
Minimum magnitude displayed is 2.5.

Coastal Water Temperatures

Place Temperature

Nearby Weather Stations